Latest Weather Observations for Rundle Island

IDQ60801

Issued at 6:22 pm EST Tuesday 17 May 2022 (issued every 10 minutes, with the page automatically refreshed every 10 minutes)

About weather observations | Map of weather stations | Latest weather observations for QLD | Other Formats
Station Details ID: 039322 Name: RUNDLE ISLAND Lat: -23.53 Lon: 151.28 Height: 19.8 m
Data from the previous 72 hours. | See also: Recent months at Rundle Island
Date/Time
EST
Temp
°C
App
Temp
°C
Dew
Point
°C
Rel
Hum
%
Delta-T
°C
Wind Press
QNH
hPa
Press
MSL
hPa
Rain since
9am
mm
Dir  Spd
km/h
Gust
km/h
Spd
kts
Gust
kts
17/06:00pm 24.7 - - - - ESE 15 17 8 9 1014.5 1014.4 -
17/05:30pm 24.8 - - - - SE 11 13 6 7 1014.3 1014.2 -
17/05:00pm 24.8 - - - - SE 11 13 6 7 1014.0 1013.9 -
17/04:30pm 24.9 - - - - SE 11 13 6 7 1013.8 1013.7 -
17/04:00pm 24.8 - - - - SE 7 9 4 5 1013.6 1013.5 -
17/03:30pm 24.8 - - - - SE 7 7 4 4 1013.4 1013.3 -
17/03:00pm 24.5 - - - - SE 15 17 8 9 1013.4 1013.3 -
17/02:30pm 24.8 - - - - SE 15 17 8 9 1013.6 1013.5 -
17/02:00pm 24.7 - - - - SSE 13 15 7 8 1013.8 1013.7 -
17/01:30pm 24.6 - - - - ESE 15 17 8 9 1013.9 1013.8 -
17/01:00pm 24.7 - - - - SE 15 19 8 10 1014.3 1014.2 -
17/12:30pm 24.4 - - - - SE 19 19 10 10 1014.7 1014.6 -
17/12:00pm 24.6 - - - - SE 15 17 8 9 1014.9 1014.8 -
17/11:30am 24.1 - - - - SE 11 13 6 7 1015.2 1015.1 -
17/11:00am 24.2 - - - - SSE 15 17 8 9 1015.5 1015.4 -
17/10:30am 24.0 - - - - SSE 17 20 9 11 1015.9 1015.8 -
17/10:00am 23.6 - - - - SSE 15 17 8 9 1016.1 1016.0 -
17/09:30am 23.7 - - - - S 11 15 6 8 1015.9 1015.8 -
17/09:00am 23.5 - - - - S 11 13 6 7 1015.9 1015.8 -
17/08:30am 23.0 - - - - SSW 13 15 7 8 1015.8 1015.7 -
17/08:00am 23.2 - - - - SSW 13 15 7 8 1015.5 1015.4 -
17/07:30am 22.8 - - - - SSE 9 11 5 6 1015.2 1015.1 -
17/07:00am 21.9 - - - - SSE 9 11 5 6 1014.8 1014.7 -
17/06:30am 21.9 - - - - SSE 13 13 7 7 1014.4 1014.3 -
17/06:00am 22.3 - - - - S 11 13 6 7 1014.0 1013.9 -
17/05:30am 22.5 - - - - S 11 13 6 7 1013.8 1013.7 -
17/05:00am 22.5 - - - - S 15 17 8 9 1013.5 1013.4 -
17/04:30am 22.4 - - - - SSW 13 15 7 8 1013.3 1013.2 -
17/04:00am 22.6 - - - - S 11 13 6 7 1013.2 1013.1 -
17/03:30am 22.7 - - - - S 11 13 6 7 1013.1 1013.0 -
17/03:00am 23.0 - - - - SE 13 15 7 8 1013.0 1012.9 -
17/02:30am 23.5 - - - - E 9 11 5 6 1013.1 1013.0 -
17/02:00am 23.3 - - - - E 9 11 5 6 1013.3 1013.2 -
17/01:30am 23.3 - - - - E 7 9 4 5 1013.4 1013.3 -
17/01:00am 23.3 - - - - E 9 9 5 5 1013.5 1013.4 -
17/12:30am 23.5 - - - - E 7 9 4 5 1013.8 1013.7 -
17/12:00am 23.4 - - - - E 9 9 5 5 1013.9 1013.8 -
 
Date/Time
EST
Temp
°C
App
Temp
°C
Dew
Point
°C
Rel
Hum
%
Delta-T
°C
Wind Press
QNH
hPa
Press
MSL
hPa
Rain since
9am
mm
Dir  Spd
km/h
Gust
km/h
Spd
kts
Gust
kts
16/11:30pm 23.6 - - - - E 9 9 5 5 1013.9 1013.8 -
16/11:00pm 23.6 - - - - E 11 13 6 7 1014.0 1013.9 -
16/10:30pm 24.1 - - - - E 11 13 6 7 1014.0 1013.9 -
16/10:00pm 24.3 - - - - E 6 7 3 4 1014.0 1013.9 -
16/09:30pm 24.4 - - - - E 4 6 2 3 1013.9 1013.8 -
16/09:00pm 24.4 - - - - E 6 7 3 4 1013.8 1013.7 -
16/08:30pm 24.5 - - - - E 11 11 6 6 1013.6 1013.5 -
16/08:00pm 24.5 - - - - E 11 11 6 6 1013.3 1013.2 -
16/07:30pm 24.5 - - - - E 11 13 6 7 1013.1 1013.0 -
16/07:00pm 24.4 - - - - E 13 15 7 8 1012.9 1012.8 -
16/06:30pm 24.4 - - - - E 13 13 7 7 1012.7 1012.6 -
16/06:00pm 24.4 - - - - E 11 13 6 7 1012.5 1012.4 -
16/05:30pm 24.3 - - - - E 13 15 7 8 1012.3 1012.2 -
16/05:00pm 24.3 - - - - ESE 13 15 7 8 1012.0 1011.9 -
16/04:30pm 24.3 - - - - ESE 13 15 7 8 1011.7 1011.6 -
16/04:00pm 24.5 - - - - ESE 9 9 5 5 1011.7 1011.6 -
16/03:30pm 24.5 - - - - ESE 9 11 5 6 1011.8 1011.7 -
16/03:00pm 24.7 - - - - ESE 11 11 6 6 1011.8 1011.7 -
16/02:30pm 24.8 - - - - ESE 7 9 4 5 1011.8 1011.7 -
16/02:00pm 24.6 - - - - ESE 11 13 6 7 1011.9 1011.8 -
16/01:30pm 24.9 - - - - SE 11 13 6 7 1012.2 1012.1 -
16/01:00pm 24.8 - - - - SE 11 13 6 7 1012.4 1012.3 -
16/12:30pm 24.4 - - - - SE 11 13 6 7 1012.6 1012.5 -
16/12:00pm 24.7 - - - - SE 11 13 6 7 1013.0 1012.9 -
16/11:30am 24.7 - - - - SE 9 11 5 6 1013.3 1013.2 -
16/11:00am 24.3 - - - - SSE 11 13 6 7 1013.6 1013.5 -
16/10:30am 24.1 - - - - SSE 13 15 7 8 1013.7 1013.6 -
16/10:00am 24.1 - - - - SSE 13 17 7 9 1013.6 1013.5 -
16/09:30am 23.8 - - - - S 15 17 8 9 1013.5 1013.4 -
16/09:00am 23.7 - - - - S 15 17 8 9 1013.4 1013.3 -
16/08:30am 23.5 - - - - SSE 15 17 8 9 1013.2 1013.1 -
16/08:00am 23.2 - - - - SSE 15 17 8 9 1012.8 1012.7 -
16/07:30am 23.1 - - - - SSE 19 20 10 11 1012.4 1012.3 -
16/07:00am 23.0 - - - - SSE 22 24 12 13 1012.1 1012.0 -
16/06:30am 23.0 - - - - SSE 17 20 9 11 1011.7 1011.6 -
16/06:00am 22.7 - - - - S 17 19 9 10 1011.2 1011.2 -
16/05:30am 22.6 - - - - SSW 19 20 10 11 1010.9 1010.9 -
16/05:00am 22.8 - - - - SSW 17 19 9 10 1010.9 1010.9 -
16/04:30am 23.2 - - - - S 17 19 9 10 1010.7 1010.7 -
16/04:00am 23.0 - - - - S 13 15 7 8 1010.6 1010.6 -
16/03:30am 23.0 - - - - SSW 13 15 7 8 1010.6 1010.6 -
16/03:00am 23.3 - - - - S 13 15 7 8 1010.7 1010.7 -
16/02:30am 23.2 - - - - S 9 11 5 6 1010.7 1010.7 -
16/02:00am 23.0 - - - - SSW 9 11 5 6 1011.0 1011.0 -
16/01:30am 23.4 - - - - S 11 13 6 7 1011.3 1011.3 -
16/01:00am 23.5 - - - - E 9 11 5 6 1011.4 1011.4 -
16/12:30am 23.5 - - - - E 13 13 7 7 1011.9 1011.8 -
16/12:00am 23.5 - - - - E 9 11 5 6 1012.1 1012.0 -
 
Date/Time
EST
Temp
°C
App
Temp
°C
Dew
Point
°C
Rel
Hum
%
Delta-T
°C
Wind Press
QNH
hPa
Press
MSL
hPa
Rain since
9am
mm
Dir  Spd
km/h
Gust
km/h
Spd
kts
Gust
kts
15/11:30pm 24.0 - - - - E 9 11 5 6 1012.3 1012.2 -
15/11:00pm 24.2 - - - - E 7 7 4 4 1012.5 1012.4 -
15/10:30pm 24.2 - - - - E 6 7 3 4 1012.5 1012.4 -
15/10:00pm 24.4 - - - - E 6 7 3 4 1012.4 1012.3 -
15/09:30pm 24.4 - - - - E 9 11 5 6 1012.3 1012.2 -
15/09:00pm 24.4 - - - - ESE 11 13 6 7 1012.2 1012.1 -
15/08:30pm 24.3 - - - - ESE 11 13 6 7 1012.2 1012.1 -
15/08:00pm 24.3 - - - - ESE 11 13 6 7 1012.0 1011.9 -
15/07:30pm 24.2 - - - - ESE 11 13 6 7 1011.5 1011.5 -
15/07:00pm 24.1 - - - - ESE 13 15 7 8 1011.1 1011.1 -
15/06:30pm 24.1 - - - - ESE 13 15 7 8 1010.6 1010.6 -
15/06:00pm 24.1 - - - - E 11 13 6 7 1010.3 1010.3 -
15/05:30pm 24.1 - - - - E 13 15 7 8 1010.1 1010.1 -
15/05:00pm 24.3 - - - - E 15 17 8 9 1009.9 1009.9 -
15/04:30pm 24.3 - - - - E 19 20 10 11 1009.8 1009.8 -
15/04:00pm 24.3 - - - - E 19 22 10 12 1009.7 1009.7 -
15/03:30pm 24.3 - - - - E 17 19 9 10 1009.7 1009.7 -
15/03:00pm 24.2 - - - - ESE 13 15 7 8 1009.6 1009.6 -
15/02:30pm 24.4 - - - - SSE 9 11 5 6 1009.6 1009.6 -
15/02:00pm 24.3 - - - - SSE 11 11 6 6 1009.4 1009.4 -
15/01:30pm 24.6 - - - - SE 9 13 5 7 1009.7 1009.7 -
15/01:00pm 24.2 - - - - SE 13 15 7 8 1010.2 1010.2 -
15/12:30pm 24.3 - - - - ESE 11 13 6 7 1011.2 1011.2 -
15/12:00pm 24.3 - - - - ESE 7 9 4 5 1011.8 1011.7 -
15/11:30am 24.1 - - - - E 7 9 4 5 1012.3 1012.2 -
15/11:00am 23.8 - - - - SSE 7 9 4 5 1012.7 1012.6 -
15/10:30am 24.1 - - - - SSE 6 6 3 3 1013.1 1013.0 -
15/10:00am 24.2 - - - - SSW 6 7 3 4 1013.2 1013.1 -
15/09:30am 23.7 - - - - SSW 9 11 5 6 1013.4 1013.3 -
15/09:00am 23.3 - - - - S 9 13 5 7 1013.2 1013.1 -
15/08:30am 23.6 - - - - SSW 9 11 5 6 1012.8 1012.7 -
15/08:00am 23.0 - - - - SSW 7 9 4 5 1012.6 1012.5 -
15/07:30am 23.0 - - - - N 9 11 5 6 1012.3 1012.2 -
15/07:00am 22.5 - - - - N 6 7 3 4 1012.1 1012.0 -
15/06:30am 22.4 - - - - N 9 9 5 5 1011.7 1011.6 -
15/06:00am 22.5 - - - - N 7 9 4 5 1011.1 1011.1 -
15/05:30am 22.6 - - - - N 9 9 5 5 1010.8 1010.8 -
15/05:00am 22.7 - - - - N 9 9 5 5 1010.5 1010.5 -
15/04:30am 22.8 - - - - N 11 13 6 7 1010.4 1010.4 -
15/04:00am 23.0 - - - - CALM 0 0 0 0 1010.4 1010.4 -
15/03:30am 23.0 - - - - CALM 0 0 0 0 1010.1 1010.1 -
15/03:00am 23.1 - - - - CALM 0 0 0 0 1010.2 1010.2 -
15/02:30am 23.0 - - - - CALM 0 0 0 0 1010.3 1010.3 -
15/02:00am 23.1 - - - - N 2 4 1 2 1010.3 1010.3 -
15/01:30am 23.3 - - - - N 4 6 2 3 1010.6 1010.6 -
15/01:00am 23.5 - - - - N 4 6 2 3 1010.8 1010.8 -
15/12:30am 23.7 - - - - N 6 7 3 4 1010.9 1010.9 -
15/12:00am 23.5 - - - - N 6 7 3 4 1011.0 1011.0 -
 
Date/Time
EST
Temp
°C
App
Temp
°C
Dew
Point
°C
Rel
Hum
%
Delta-T
°C
Wind Press
QNH
hPa
Press
MSL
hPa
Rain since
9am
mm
Dir  Spd
km/h
Gust
km/h
Spd
kts
Gust
kts
14/11:30pm 23.4 - - - - N 6 6 3 3 1011.0 1011.0 -
14/11:00pm 23.4 - - - - N 4 6 2 3 1010.9 1010.9 -
14/10:30pm 23.7 - - - - N 4 4 2 2 1011.0 1011.0 -
14/10:00pm 23.9 - - - - N 4 4 2 2 1011.1 1011.1 -
14/09:30pm 23.9 - - - - N 7 7 4 4 1011.2 1011.2 -
14/09:00pm 24.0 - - - - N 7 7 4 4 1011.3 1011.3 -
14/08:30pm 24.1 - - - - N 11 13 6 7 1011.1 1011.1 -
14/08:00pm 24.0 - - - - NNE 9 11 5 6 1010.8 1010.8 -
14/07:30pm 24.1 - - - - N 7 9 4 5 1010.6 1010.6 -
14/07:00pm 24.0 - - - - N 9 13 5 7 1010.2 1010.2 -
14/06:30pm 24.0 - - - - NNW 11 13 6 7 1010.0 1010.0 -

Other formats

Comma delimited format used in spreadsheet applications
http://www.bom.gov.au/fwo/IDQ60801/IDQ60801.94378.axf

JavaScript Object Notation format (JSON) in row-major order
http://www.bom.gov.au/fwo/IDQ60801/IDQ60801.94378.json

Data quality

Most of these data are generated automatically and are frequently updated. Quality checks on data are not normally performed. It is possible for incorrect values to appear. Refer to information at About Latest Weather Observations and please check the disclaimer before using these data.